Time;durP1;ratioP1;P1;durP2;ratioP2;P2;SDS_P1;SDS_P2;PMS_P1;PMS_P2;Temp;Humidity;BMP_temperature;BMP_pressure;BME280_temperature;BME280_humidity;BME280_pressure;Samples;Min_cycle;Max_cycle;Signal;HPM_P1;HPM_P2
2021/12/30 00:01:41;;;;;;;;;;;13.50;99.90;;;;;;5057070;28;19921;-73
2021/12/30 00:04:09;;;;;;;;;;;13.50;99.90;;;;;;5024802;28;19952;-73
2021/12/30 00:06:40;;;;;;;;;;;13.50;99.90;;;;;;5024531;28;19931;-73
2021/12/30 00:09:09;;;;;;;;;;;13.50;99.90;;;;;;5040418;28;19924;-73
2021/12/30 00:11:38;;;;;;;;;;;13.50;99.90;;;;;;5025482;28;19925;-73
2021/12/30 00:14:05;;;;;;;;;;;13.50;99.90;;;;;;5024259;28;20282;-72
2021/12/30 00:16:32;;;;;;;;;;;13.50;99.90;;;;;;5026754;28;20152;-73
2021/12/30 00:19:00;;;;;;;;;;;13.50;99.90;;;;;;5026372;28;20277;-72
2021/12/30 00:21:28;;;;;;;;;;;13.50;99.90;;;;;;5027281;28;19933;-73
2021/12/30 00:23:55;;;;;;;;;;;13.50;99.90;;;;;;5027181;28;19928;-72
2021/12/30 00:26:23;;;;;;;;;;;13.60;99.90;;;;;;5025517;28;19935;-72
2021/12/30 00:28:50;;;;;;;;;;;13.60;99.90;;;;;;5027502;28;19921;-73
2021/12/30 00:31:18;;;;;;;;;;;13.60;99.90;;;;;;5025462;28;19924;-74
2021/12/30 00:33:46;;;;;;;;;;;13.60;99.90;;;;;;5025779;28;19932;-72
2021/12/30 00:36:13;;;;;;;;;;;13.60;99.90;;;;;;5026803;28;19929;-73
2021/12/30 00:38:42;;;;;;;;;;;13.60;99.90;;;;;;5026946;28;19944;-73
2021/12/30 00:41:10;;;;;;;;;;;13.60;99.90;;;;;;5024844;28;19925;-73
2021/12/30 00:43:37;;;;;;;;;;;13.60;99.90;;;;;;5026651;28;20815;-72
2021/12/30 00:46:06;;;;;;;;;;;13.60;99.90;;;;;;5026620;28;19933;-72
2021/12/30 00:48:33;;;;;;;;;;;13.60;99.90;;;;;;5026916;28;19929;-72
2021/12/30 00:51:01;;;;;;;;;;;13.60;99.90;;;;;;5026976;28;19920;-72
2021/12/30 00:53:29;;;;;;;;;;;13.70;99.90;;;;;;5026758;28;19972;-73
2021/12/30 00:55:56;;;;;;;;;;;13.70;99.90;;;;;;5026261;28;19925;-73
2021/12/30 00:58:24;;;;;;;;;;;13.70;99.90;;;;;;5025241;28;19932;-73
2021/12/30 01:00:53;;;;;;;;;;;13.80;99.90;;;;;;5026269;28;19925;-73
2021/12/30 01:03:21;;;;;;;;;;;13.80;99.90;;;;;;5025309;28;19928;-73
2021/12/30 01:05:48;;;;;;;;;;;13.80;99.90;;;;;;5024827;28;19921;-74
2021/12/30 01:08:16;;;;;;;;;;;13.80;99.90;;;;;;5026344;28;19921;-73
2021/12/30 01:10:44;;;;;;;;;;;13.80;99.90;;;;;;5025549;28;20389;-73
2021/12/30 01:13:17;;;;;;;;;;;13.80;99.90;;;;;;5013334;28;19925;-73
2021/12/30 01:15:55;;;;;;;;;;;13.80;99.90;;;;;;5015179;28;19925;-74
2021/12/30 01:18:34;;;;;;;;;;;13.80;99.90;;;;;;5025818;28;19925;-73
2021/12/30 01:21:02;;;;;;;;;;;13.80;99.90;;;;;;5026649;28;19925;-73
2021/12/30 01:23:30;;;;;;;;;;;13.80;99.90;;;;;;5041408;28;19929;-73
2021/12/30 01:25:59;;;;;;;;;;;13.80;99.90;;;;;;5025206;28;19925;-73
2021/12/30 01:28:28;;;;;;;;;;;13.80;99.90;;;;;;5025037;28;19925;-73
2021/12/30 01:30:56;;;;;;;;;;;13.80;99.90;;;;;;5026519;28;19921;-73
2021/12/30 01:33:27;;;;;;;;;;;13.80;99.90;;;;;;5026646;28;19921;-73
2021/12/30 01:35:54;;;;;;;;;;;13.80;99.90;;;;;;5026441;28;19925;-72
2021/12/30 01:38:21;;;;;;;;;;;13.80;99.90;;;;;;5026178;28;19924;-73
2021/12/30 01:40:50;;;;;;;;;;;13.80;99.90;;;;;;5026260;28;19921;-72
2021/12/30 01:43:18;;;;;;;;;;;13.80;99.90;;;;;;5004582;28;19979;-73
2021/12/30 01:45:46;;;;;;;;;;;13.80;99.90;;;;;;5011541;28;20076;-73
2021/12/30 01:48:14;;;;;;;;;;;13.80;99.90;;;;;;5006226;28;19921;-73
2021/12/30 01:50:42;;;;;;;;;;;13.80;99.90;;;;;;5006652;28;19948;-73
2021/12/30 01:53:09;;;;;;;;;;;13.80;99.90;;;;;;5006570;28;19922;-73
2021/12/30 01:55:38;;;;;;;;;;;13.80;99.90;;;;;;5037387;28;20341;-73
2021/12/30 01:58:05;;;;;;;;;;;13.80;99.90;;;;;;5021443;28;19922;-73
2021/12/30 02:00:33;;;;;;;;;;;13.80;99.90;;;;;;5006288;28;20005;-73
2021/12/30 02:03:01;;;;;;;;;;;13.80;99.90;;;;;;5004918;28;19926;-73
2021/12/30 02:05:29;;;;;;;;;;;13.80;99.90;;;;;;5022670;28;19932;-73
2021/12/30 02:07:57;;;;;;;;;;;13.80;99.90;;;;;;5024297;28;19925;-73
2021/12/30 02:10:25;;;;;;;;;;;13.80;99.90;;;;;;5004497;28;19925;-73
2021/12/30 02:12:52;;;;;;;;;;;13.70;99.90;;;;;;5006037;28;19932;-73
2021/12/30 02:15:20;;;;;;;;;;;13.80;99.90;;;;;;5008126;28;19933;-73
2021/12/30 02:17:49;;;;;;;;;;;13.80;99.90;;;;;;4988231;28;19930;-73
2021/12/30 02:20:35;;;;;;;;;;;13.80;99.90;;;;;;5006138;28;20400;-73
2021/12/30 02:23:03;;;;;;;;;;;13.80;99.90;;;;;;5021560;28;19932;-73
2021/12/30 02:25:30;;;;;;;;;;;13.80;99.90;;;;;;5005859;28;19921;-73
2021/12/30 02:27:58;;;;;;;;;;;13.80;99.90;;;;;;5009931;28;20298;-73
2021/12/30 02:30:25;;;;;;;;;;;13.80;99.90;;;;;;5005864;28;19925;-72
2021/12/30 02:32:53;;;;;;;;;;;13.80;99.90;;;;;;5006105;28;19926;-73
2021/12/30 02:35:20;;;;;;;;;;;13.80;99.90;;;;;;5021278;28;19921;-73
2021/12/30 02:37:51;;;;;;;;;;;13.80;99.90;;;;;;5027890;28;19952;-73
2021/12/30 02:40:26;;;;;;;;;;;13.80;99.90;;;;;;5027695;28;19921;-73
2021/12/30 02:42:53;;;;;;;;;;;13.80;99.90;;;;;;5028608;28;19932;-73
2021/12/30 02:45:20;;;;;;;;;;;13.80;99.90;;;;;;5027723;28;19932;-73
2021/12/30 02:47:48;;;;;;;;;;;13.80;99.90;;;;;;5028187;28;19932;-72
2021/12/30 02:50:16;;;;;;;;;;;13.80;99.90;;;;;;5026229;28;19921;-73
2021/12/30 02:52:43;;;;;;;;;;;13.80;99.90;;;;;;5028284;28;19921;-73
2021/12/30 02:55:11;;;;;;;;;;;13.80;99.90;;;;;;5029083;28;19928;-73
2021/12/30 02:57:38;;;;;;;;;;;13.80;99.90;;;;;;5029358;28;20377;-75
2021/12/30 03:00:07;;;;;;;;;;;13.80;99.90;;;;;;5029650;28;19929;-73
2021/12/30 03:02:36;;;;;;;;;;;13.80;99.90;;;;;;5029075;28;20326;-73
2021/12/30 03:05:05;;;;;;;;;;;13.80;99.90;;;;;;5028592;28;19925;-73
2021/12/30 03:07:33;;;;;;;;;;;13.80;99.90;;;;;;5028173;28;19936;-72
2021/12/30 03:10:01;;;;;;;;;;;13.80;99.90;;;;;;5029068;28;19928;-73
2021/12/30 03:12:28;;;;;;;;;;;13.90;99.90;;;;;;5029151;28;19925;-73
2021/12/30 03:14:58;;;;;;;;;;;13.80;99.90;;;;;;5029359;28;19929;-73
2021/12/30 03:17:25;;;;;;;;;;;13.80;99.90;;;;;;5028997;28;19925;-73
2021/12/30 03:19:53;;;;;;;;;;;13.80;99.90;;;;;;5029048;28;19925;-73
2021/12/30 03:22:21;;;;;;;;;;;13.80;99.90;;;;;;5028923;28;19944;-73
2021/12/30 03:24:48;;;;;;;;;;;13.80;99.90;;;;;;5060570;28;19921;-73
2021/12/30 03:27:16;;;;;;;;;;;13.80;99.90;;;;;;5012524;28;20686;-74
2021/12/30 03:29:43;;;;;;;;;;;13.80;99.90;;;;;;5007735;28;19948;-73
2021/12/30 03:32:11;;;;;;;;;;;13.70;99.90;;;;;;5008263;28;19925;-73
2021/12/30 03:34:38;;;;;;;;;;;13.70;99.90;;;;;;5009241;28;19950;-73
2021/12/30 03:37:05;;;;;;;;;;;13.70;99.90;;;;;;5008457;28;19956;-73
2021/12/30 03:39:33;;;;;;;;;;;13.70;99.90;;;;;;5025653;28;19947;-73
2021/12/30 03:42:00;;;;;;;;;;;13.80;99.90;;;;;;5021028;28;20365;-73
2021/12/30 03:44:28;;;;;;;;;;;13.80;99.90;;;;;;5027201;28;19924;-75
2021/12/30 03:46:56;;;;;;;;;;;13.80;99.90;;;;;;5026060;28;19997;-73
2021/12/30 03:49:23;;;;;;;;;;;13.80;99.90;;;;;;5024077;28;19936;-74
2021/12/30 03:51:53;;;;;;;;;;;13.80;99.90;;;;;;5016775;28;19925;-73
2021/12/30 03:54:21;;;;;;;;;;;13.80;99.90;;;;;;5027046;28;20324;-74
2021/12/30 03:56:48;;;;;;;;;;;13.80;99.90;;;;;;5027039;28;19932;-73
2021/12/30 03:59:16;;;;;;;;;;;13.80;99.90;;;;;;5058733;28;20441;-73
2021/12/30 04:01:43;;;;;;;;;;;13.80;99.90;;;;;;5022959;28;19925;-73
2021/12/30 04:04:11;;;;;;;;;;;13.80;99.90;;;;;;5006195;28;20293;-75
2021/12/30 04:06:38;;;;;;;;;;;13.80;99.90;;;;;;5008128;28;19921;-74
2021/12/30 04:09:06;;;;;;;;;;;13.90;99.90;;;;;;5026219;28;19948;-73
2021/12/30 04:11:35;;;;;;;;;;;13.90;99.90;;;;;;5027569;28;19925;-74
2021/12/30 04:14:03;;;;;;;;;;;13.90;99.90;;;;;;5007199;28;19925;-74
2021/12/30 04:16:32;;;;;;;;;;;13.90;99.90;;;;;;5023684;28;19928;-73
2021/12/30 04:19:00;;;;;;;;;;;13.90;99.90;;;;;;5026487;28;20297;-73
2021/12/30 04:21:28;;;;;;;;;;;13.80;99.90;;;;;;5022524;28;19932;-73
2021/12/30 04:23:55;;;;;;;;;;;13.80;99.90;;;;;;5008537;28;20105;-73
2021/12/30 04:26:27;;;;;;;;;;;13.80;99.90;;;;;;5039718;28;19926;-73
2021/12/30 04:28:56;;;;;;;;;;;13.90;99.90;;;;;;5023297;28;20466;-73
2021/12/30 04:31:24;;;;;;;;;;;13.90;99.90;;;;;;5023355;28;19928;-73
2021/12/30 04:33:52;;;;;;;;;;;13.90;99.90;;;;;;5026164;28;19951;-73
2021/12/30 04:36:19;;;;;;;;;;;13.90;99.90;;;;;;5026440;28;19921;-73
2021/12/30 04:38:47;;;;;;;;;;;13.90;99.90;;;;;;5027202;28;19925;-73
2021/12/30 04:41:14;;;;;;;;;;;13.80;99.90;;;;;;5058976;28;19921;-73
2021/12/30 04:43:43;;;;;;;;;;;13.80;99.90;;;;;;5027182;28;19925;-74
2021/12/30 04:46:10;;;;;;;;;;;13.80;99.90;;;;;;5027566;28;19925;-73
2021/12/30 04:48:37;;;;;;;;;;;13.90;99.90;;;;;;5027442;28;19936;-74
2021/12/30 04:51:05;;;;;;;;;;;13.80;99.90;;;;;;5027562;28;19932;-73
2021/12/30 04:53:33;;;;;;;;;;;13.80;99.90;;;;;;5027076;28;19929;-73
2021/12/30 04:56:00;;;;;;;;;;;13.70;99.90;;;;;;5027286;28;19925;-72
2021/12/30 04:58:28;;;;;;;;;;;13.70;99.90;;;;;;5005236;28;19979;-73
2021/12/30 05:00:55;;;;;;;;;;;13.70;99.90;;;;;;5006263;28;19925;-74
2021/12/30 05:03:25;;;;;;;;;;;13.60;99.90;;;;;;5007443;28;19925;-74
2021/12/30 05:05:53;;;;;;;;;;;13.70;99.90;;;;;;5007640;28;19956;-73
2021/12/30 05:08:22;;;;;;;;;;;13.60;99.90;;;;;;5006236;28;19922;-73
2021/12/30 05:10:50;;;;;;;;;;;13.60;99.90;;;;;;5006016;28;19926;-73
2021/12/30 05:13:18;;;;;;;;;;;13.70;99.90;;;;;;5007670;28;19932;-73
2021/12/30 05:15:49;;;;;;;;;;;13.70;99.90;;;;;;5017338;28;19925;-73
2021/12/30 05:18:18;;;;;;;;;;;13.70;99.90;;;;;;5059038;28;19948;-73
2021/12/30 05:20:46;;;;;;;;;;;13.70;99.90;;;;;;5025717;28;19921;-73
2021/12/30 05:23:13;;;;;;;;;;;13.70;99.90;;;;;;5027233;28;19925;-73
2021/12/30 05:25:41;;;;;;;;;;;13.70;99.90;;;;;;5027059;28;19921;-73
2021/12/30 05:28:08;;;;;;;;;;;13.70;99.90;;;;;;5027035;28;19925;-73
2021/12/30 05:30:36;;;;;;;;;;;13.70;99.90;;;;;;5059041;28;19921;-72
2021/12/30 05:33:04;;;;;;;;;;;13.80;99.90;;;;;;5025647;28;19954;-73
2021/12/30 05:35:31;;;;;;;;;;;13.80;99.90;;;;;;5026902;28;19921;-74
2021/12/30 05:38:01;;;;;;;;;;;13.70;99.90;;;;;;5026726;28;20281;-73
2021/12/30 05:40:29;;;;;;;;;;;13.80;99.90;;;;;;5010276;28;19925;-73
2021/12/30 05:42:56;;;;;;;;;;;13.70;99.90;;;;;;5007279;28;19929;-73
2021/12/30 05:45:26;;;;;;;;;;;13.70;99.90;;;;;;5038137;28;19921;-73
2021/12/30 05:47:54;;;;;;;;;;;13.70;99.90;;;;;;5005262;28;19921;-73
2021/12/30 05:50:23;;;;;;;;;;;13.70;99.90;;;;;;5005043;28;19932;-73
2021/12/30 05:52:51;;;;;;;;;;;13.70;99.90;;;;;;5006387;28;19944;-73
2021/12/30 05:55:19;;;;;;;;;;;13.70;99.90;;;;;;5038193;28;19925;-73
2021/12/30 05:57:47;;;;;;;;;;;13.70;99.90;;;;;;5006681;28;19929;-73
2021/12/30 06:00:15;;;;;;;;;;;13.70;99.90;;;;;;5006489;28;19925;-74
2021/12/30 06:02:44;;;;;;;;;;;13.60;99.90;;;;;;5005115;28;19925;-73
2021/12/30 06:05:12;;;;;;;;;;;13.60;99.90;;;;;;5006170;28;20290;-73
2021/12/30 06:07:39;;;;;;;;;;;13.60;99.90;;;;;;5005032;28;19921;-73
2021/12/30 06:10:07;;;;;;;;;;;13.60;99.90;;;;;;5006231;28;19929;-73
2021/12/30 06:12:35;;;;;;;;;;;13.60;99.90;;;;;;5009053;28;19925;-73
2021/12/30 06:15:03;;;;;;;;;;;13.60;99.90;;;;;;5009637;28;20424;-73
2021/12/30 06:17:31;;;;;;;;;;;13.60;99.90;;;;;;5010000;28;19928;-72
2021/12/30 06:19:59;;;;;;;;;;;13.60;99.90;;;;;;5012865;28;19929;-72
2021/12/30 06:22:26;;;;;;;;;;;13.60;99.90;;;;;;5024853;28;19933;-72
2021/12/30 06:24:53;;;;;;;;;;;13.60;99.90;;;;;;5024667;28;19944;-72
2021/12/30 06:27:21;;;;;;;;;;;13.60;99.90;;;;;;4992284;28;19928;-72
2021/12/30 06:29:48;;;;;;;;;;;13.60;99.90;;;;;;5009922;28;20357;-73
2021/12/30 06:32:16;;;;;;;;;;;13.60;99.90;;;;;;5008573;28;19921;-73
2021/12/30 06:34:43;;;;;;;;;;;13.60;99.90;;;;;;5041370;28;19925;-72
2021/12/30 06:37:11;;;;;;;;;;;13.60;99.90;;;;;;5009934;28;19921;-72
2021/12/30 06:39:39;;;;;;;;;;;13.60;99.90;;;;;;5040785;28;19937;-73
2021/12/30 06:42:06;;;;;;;;;;;13.60;99.90;;;;;;5008364;28;19925;-72
2021/12/30 06:44:34;;;;;;;;;;;13.60;99.90;;;;;;5018891;28;19932;-73
2021/12/30 06:47:03;;;;;;;;;;;13.60;99.90;;;;;;5061148;28;20595;-72
2021/12/30 06:49:36;;;;;;;;;;;13.70;99.90;;;;;;5027672;28;19925;-73
2021/12/30 06:52:04;;;;;;;;;;;13.60;99.90;;;;;;5027956;28;19932;-73
2021/12/30 06:54:32;;;;;;;;;;;13.60;99.90;;;;;;5023964;28;19933;-72
2021/12/30 06:57:02;;;;;;;;;;;13.60;99.90;;;;;;5007998;28;19932;-72
2021/12/30 06:59:30;;;;;;;;;;;13.60;99.90;;;;;;5009008;28;20368;-72
2021/12/30 07:01:58;;;;;;;;;;;13.60;99.90;;;;;;5040760;28;20001;-72
2021/12/30 07:04:26;;;;;;;;;;;13.60;99.90;;;;;;4991582;28;19922;-72
2021/12/30 07:06:53;;;;;;;;;;;13.60;99.90;;;;;;5009236;28;20289;-71
2021/12/30 07:09:21;;;;;;;;;;;13.60;99.90;;;;;;5009188;28;19921;-72
2021/12/30 07:11:50;;;;;;;;;;;13.60;99.90;;;;;;5008865;28;19925;-72
2021/12/30 07:14:18;;;;;;;;;;;13.60;99.90;;;;;;5007912;28;19936;-72
2021/12/30 07:16:46;;;;;;;;;;;13.60;99.90;;;;;;5025823;28;19936;-72
2021/12/30 07:19:14;;;;;;;;;;;13.70;99.90;;;;;;5060429;28;19928;-72
2021/12/30 07:21:42;;;;;;;;;;;13.60;99.90;;;;;;5026798;28;20389;-73
2021/12/30 07:24:09;;;;;;;;;;;13.60;99.90;;;;;;5026938;28;19933;-72
2021/12/30 07:26:37;;;;;;;;;;;13.60;99.90;;;;;;5027738;28;19925;-72
2021/12/30 07:29:04;;;;;;;;;;;13.60;99.90;;;;;;5026575;28;19947;-72
2021/12/30 07:31:32;;;;;;;;;;;13.60;99.90;;;;;;5028645;28;19937;-72
2021/12/30 07:34:00;;;;;;;;;;;13.50;99.90;;;;;;5024281;28;20411;-72
2021/12/30 07:36:27;;;;;;;;;;;13.50;99.90;;;;;;5010105;28;19925;-72
2021/12/30 07:38:55;;;;;;;;;;;13.50;99.90;;;;;;5022908;28;19932;-72
2021/12/30 07:41:22;;;;;;;;;;;13.50;99.90;;;;;;5023001;28;19925;-73
2021/12/30 07:43:50;;;;;;;;;;;13.50;99.90;;;;;;5022917;28;19929;-72
2021/12/30 07:46:18;;;;;;;;;;;13.50;99.90;;;;;;5044132;28;19958;-72
2021/12/30 07:48:45;;;;;;;;;;;13.50;99.90;;;;;;5039969;28;19932;-72
2021/12/30 07:51:13;;;;;;;;;;;13.50;99.90;;;;;;5021580;28;19925;-72
2021/12/30 07:53:41;;;;;;;;;;;13.60;99.90;;;;;;5048191;28;19929;-72
2021/12/30 07:56:08;;;;;;;;;;;13.50;99.90;;;;;;5017779;28;19929;-72
2021/12/30 07:58:36;;;;;;;;;;;13.60;99.90;;;;;;5012320;28;19921;-72
2021/12/30 08:01:04;;;;;;;;;;;13.60;99.90;;;;;;5017351;28;19925;-72
2021/12/30 08:03:32;;;;;;;;;;;13.60;99.90;;;;;;5021667;28;20432;-72
2021/12/30 08:05:59;;;;;;;;;;;13.60;99.90;;;;;;5027428;28;20456;-72
2021/12/30 08:08:27;;;;;;;;;;;13.60;99.90;;;;;;5042674;28;19924;-72
2021/12/30 08:10:54;;;;;;;;;;;13.60;99.90;;;;;;5026119;28;19924;-72
2021/12/30 08:13:23;;;;;;;;;;;13.60;99.90;;;;;;5024512;28;19932;-73
2021/12/30 08:15:51;;;;;;;;;;;13.60;99.90;;;;;;5025083;28;19921;-73
2021/12/30 08:18:18;;;;;;;;;;;13.70;99.90;;;;;;5042137;28;19924;-73
2021/12/30 08:20:46;;;;;;;;;;;13.70;99.90;;;;;;5026838;28;19920;-73
2021/12/30 08:23:14;;;;;;;;;;;13.70;99.90;;;;;;5005369;28;19947;-73
2021/12/30 08:25:42;;;;;;;;;;;13.70;99.90;;;;;;5037917;28;19929;-73
2021/12/30 08:28:09;;;;;;;;;;;13.70;99.90;;;;;;4994664;28;20632;-73
2021/12/30 08:30:37;;;;;;;;;;;13.70;99.90;;;;;;5055123;28;20287;-72
2021/12/30 08:33:04;;;;;;;;;;;13.70;99.90;;;;;;5026804;28;19921;-72
2021/12/30 08:35:32;;;;;;;;;;;13.80;99.90;;;;;;5042185;28;19929;-72
2021/12/30 08:38:00;;;;;;;;;;;13.80;99.90;;;;;;5025623;28;19925;-72
2021/12/30 08:40:27;;;;;;;;;;;13.80;99.90;;;;;;5026001;28;19932;-73
2021/12/30 08:42:55;;;;;;;;;;;13.80;99.90;;;;;;5023882;28;19924;-73
2021/12/30 08:45:22;;;;;;;;;;;13.90;99.90;;;;;;5027993;28;19929;-72
2021/12/30 08:47:50;;;;;;;;;;;13.90;99.90;;;;;;5036091;28;19936;-82
2021/12/30 08:50:17;;;;;;;;;;;13.90;99.90;;;;;;5021708;28;20552;-73
2021/12/30 08:52:45;;;;;;;;;;;13.90;99.90;;;;;;5009577;28;19932;-77
2021/12/30 08:55:14;;;;;;;;;;;13.80;99.90;;;;;;5011157;28;19926;-81
2021/12/30 08:57:42;;;;;;;;;;;13.80;99.90;;;;;;5018199;28;19933;-74
2021/12/30 09:00:13;;;;;;;;;;;13.80;99.90;;;;;;5025492;28;19932;-74
2021/12/30 09:02:41;;;;;;;;;;;13.80;99.90;;;;;;5024683;28;19925;-73
2021/12/30 09:05:08;;;;;;;;;;;13.70;99.90;;;;;;5023521;28;19921;-75
2021/12/30 09:07:36;;;;;;;;;;;13.70;99.90;;;;;;5017445;28;19921;-75
2021/12/30 09:10:06;;;;;;;;;;;13.70;99.90;;;;;;5004239;28;19933;-73
2021/12/30 09:12:33;;;;;;;;;;;13.70;99.90;;;;;;5012659;28;19925;-73
2021/12/30 09:15:19;;;;;;;;;;;13.70;99.90;;;;;;5022285;28;19968;-73
2021/12/30 09:17:47;;;;;;;;;;;13.80;99.90;;;;;;5013285;28;19931;-74
2021/12/30 09:20:15;;;;;;;;;;;13.80;99.90;;;;;;5026073;28;19957;-74
2021/12/30 09:22:43;;;;;;;;;;;13.80;99.90;;;;;;5026127;28;19937;-74
2021/12/30 09:25:11;;;;;;;;;;;13.90;99.90;;;;;;5057885;28;19932;-73
2021/12/30 09:27:39;;;;;;;;;;;14.00;99.90;;;;;;5008373;28;20404;-73
2021/12/30 09:30:08;;;;;;;;;;;14.00;99.90;;;;;;5023631;28;19925;-73
2021/12/30 09:32:39;;;;;;;;;;;14.00;99.90;;;;;;5020792;28;20321;-76
2021/12/30 09:35:08;;;;;;;;;;;14.00;99.90;;;;;;5006165;28;19925;-74
2021/12/30 09:37:35;;;;;;;;;;;14.00;99.90;;;;;;5037069;28;19929;-74
2021/12/30 09:40:04;;;;;;;;;;;14.10;99.90;;;;;;5020979;28;19985;-74
2021/12/30 09:42:31;;;;;;;;;;;14.10;99.90;;;;;;5023107;28;19925;-73
2021/12/30 09:44:59;;;;;;;;;;;14.10;99.90;;;;;;5043565;28;19929;-75
2021/12/30 09:47:27;;;;;;;;;;;14.20;99.90;;;;;;5031679;28;19924;-76
2021/12/30 09:49:54;;;;;;;;;;;14.20;99.90;;;;;;5046591;28;20305;-75
2021/12/30 09:52:22;;;;;;;;;;;14.20;99.90;;;;;;5028534;28;19925;-75
2021/12/30 09:54:49;;;;;;;;;;;14.20;99.90;;;;;;5022024;28;19928;-75
2021/12/30 09:57:16;;;;;;;;;;;14.20;99.90;;;;;;5007218;28;19925;-73
2021/12/30 09:59:44;;;;;;;;;;;14.30;99.90;;;;;;5028631;28;19928;-75
2021/12/30 10:02:11;;;;;;;;;;;14.20;99.90;;;;;;5028412;28;20293;-76
2021/12/30 10:04:39;;;;;;;;;;;14.20;99.90;;;;;;5027904;28;19921;-76
2021/12/30 10:07:18;;;;;;;;;;;14.20;99.90;;;;;;5028311;28;19932;-74
2021/12/30 10:09:53;;;;;;;;;;;14.20;99.90;;;;;;5062977;28;19927;-76
2021/12/30 10:12:33;;;;;;;;;;;14.20;99.90;;;;;;5030121;28;19925;-75
2021/12/30 10:15:01;;;;;;;;;;;14.20;99.90;;;;;;5027180;28;19925;-76
2021/12/30 10:17:29;;;;;;;;;;;14.20;99.90;;;;;;5011352;28;19948;-75
2021/12/30 10:20:13;;;;;;;;;;;14.20;99.90;;;;;;5010855;28;20313;-75
2021/12/30 10:22:41;;;;;;;;;;;14.20;99.90;;;;;;5011585;28;20425;-75
2021/12/30 10:25:25;;;;;;;;;;;14.20;99.90;;;;;;5011379;28;19929;-75
2021/12/30 10:27:53;;;;;;;;;;;14.20;99.90;;;;;;4998627;28;19932;-73
2021/12/30 10:30:29;;;;;;;;;;;14.20;99.90;;;;;;5031086;28;19929;-73
2021/12/30 10:33:10;;;;;;;;;;;14.20;99.90;;;;;;5032273;28;20405;-74
2021/12/30 10:35:37;;;;;;;;;;;14.20;99.90;;;;;;5030719;28;19925;-75
2021/12/30 10:38:09;;;;;;;;;;;14.20;99.90;;;;;;5025447;28;19948;-78
2021/12/30 10:40:41;;;;;;;;;;;14.20;99.90;;;;;;5046919;28;20294;-75
2021/12/30 10:43:13;;;;;;;;;;;14.20;99.90;;;;;;5064099;28;20385;-73
2021/12/30 10:45:41;;;;;;;;;;;14.20;99.90;;;;;;5051018;28;20400;-74
2021/12/30 10:48:09;;;;;;;;;;;14.20;99.90;;;;;;5012425;28;19925;-75
2021/12/30 10:50:37;;;;;;;;;;;14.20;99.90;;;;;;5011010;28;19925;-75
2021/12/30 10:53:04;;;;;;;;;;;14.20;99.90;;;;;;5040041;28;19932;-75
2021/12/30 10:55:33;;;;;;;;;;;14.20;99.90;;;;;;5031255;28;19928;-74
2021/12/30 10:58:21;;;;;;;;;;;14.20;99.90;;;;;;5024586;28;19921;-76
2021/12/30 11:00:49;;;;;;;;;;;14.30;99.90;;;;;;5027903;28;19928;-75
2021/12/30 11:03:19;;;;;;;;;;;14.30;99.90;;;;;;5028023;28;19921;-76
2021/12/30 11:06:06;;;;;;;;;;;14.30;99.90;;;;;;5025825;28;19932;-76
2021/12/30 11:08:33;;;;;;;;;;;14.30;99.90;;;;;;5025714;28;20457;-75
2021/12/30 11:11:04;;;;;;;;;;;14.30;99.90;;;;;;5026671;28;19925;-75
2021/12/30 11:13:33;;;;;;;;;;;14.30;99.90;;;;;;5025550;28;19936;-75
2021/12/30 11:16:01;;;;;;;;;;;14.30;99.90;;;;;;5027422;28;19932;-74
2021/12/30 11:18:39;;;;;;;;;;;14.40;99.90;;;;;;5021312;28;19921;-75
2021/12/30 11:21:06;;;;;;;;;;;14.40;99.90;;;;;;5015827;28;19932;-76
2021/12/30 11:23:34;;;;;;;;;;;14.40;99.90;;;;;;5024197;28;19929;-74
2021/12/30 11:26:01;;;;;;;;;;;14.50;99.90;;;;;;5021187;28;20445;-76
2021/12/30 11:28:29;;;;;;;;;;;14.50;99.90;;;;;;5024205;28;20297;-77
2021/12/30 11:30:58;;;;;;;;;;;14.60;99.90;;;;;;5025046;28;19949;-77
2021/12/30 11:33:25;;;;;;;;;;;14.60;99.90;;;;;;5022239;28;19925;-77
2021/12/30 11:35:53;;;;;;;;;;;14.70;99.90;;;;;;5007461;28;19932;-77
2021/12/30 11:38:21;;;;;;;;;;;14.70;99.90;;;;;;5007039;28;19925;-75
2021/12/30 11:40:48;;;;;;;;;;;14.70;99.90;;;;;;5008147;28;19922;-75
2021/12/30 11:43:16;;;;;;;;;;;14.80;99.90;;;;;;5006547;28;19921;-76
2021/12/30 11:45:44;;;;;;;;;;;14.70;99.90;;;;;;5014002;28;19921;-75
2021/12/30 11:48:18;;;;;;;;;;;14.80;99.90;;;;;;5007190;28;19929;-74
2021/12/30 11:50:45;;;;;;;;;;;14.70;99.90;;;;;;5007968;28;19925;-82
2021/12/30 11:53:24;;;;;;;;;;;14.60;99.90;;;;;;5005150;28;19925;-76
2021/12/30 11:55:57;;;;;;;;;;;14.60;99.90;;;;;;5007144;28;19930;-75
2021/12/30 11:58:27;;;;;;;;;;;14.60;99.90;;;;;;5012886;28;19925;-76
2021/12/30 12:00:56;;;;;;;;;;;14.50;99.90;;;;;;5025710;28;19925;-75
2021/12/30 12:03:27;;;;;;;;;;;14.50;99.90;;;;;;5027070;28;19992;-76
2021/12/30 12:05:54;;;;;;;;;;;14.50;99.90;;;;;;5027359;28;19928;-74
2021/12/30 12:08:27;;;;;;;;;;;14.40;99.90;;;;;;5024556;28;20289;-75
2021/12/30 12:11:12;;;;;;;;;;;14.40;99.90;;;;;;5024225;28;19924;-76
2021/12/30 12:13:41;;;;;;;;;;;14.50;99.90;;;;;;5023799;28;19924;-74
2021/12/30 12:16:09;;;;;;;;;;;14.50;99.90;;;;;;5057585;28;19921;-76
2021/12/30 12:18:43;;;;;;;;;;;14.40;99.90;;;;;;5058457;28;20183;-76
2021/12/30 12:21:17;;;;;;;;;;;14.50;99.90;;;;;;5021826;28;19925;-78
2021/12/30 12:23:47;;;;;;;;;;;14.50;99.90;;;;;;5005358;28;20389;-76
2021/12/30 12:26:18;;;;;;;;;;;14.50;99.90;;;;;;4989459;28;20634;-75
2021/12/30 12:28:51;;;;;;;;;;;14.50;99.90;;;;;;5016842;28;19925;-76
2021/12/30 12:31:21;;;;;;;;;;;14.50;99.90;;;;;;5025549;28;19931;-75
2021/12/30 12:33:56;;;;;;;;;;;14.50;99.90;;;;;;5025904;28;19925;-76
2021/12/30 12:36:33;;;;;;;;;;;14.50;99.90;;;;;;5053765;28;19921;-74
2021/12/30 12:39:01;;;;;;;;;;;14.60;99.90;;;;;;5017050;28;19932;-74
2021/12/30 12:41:30;;;;;;;;;;;14.60;99.90;;;;;;5015451;28;19931;-74
2021/12/30 12:44:01;;;;;;;;;;;14.70;99.90;;;;;;5040060;28;20381;-72
2021/12/30 12:46:42;;;;;;;;;;;14.70;99.90;;;;;;5041608;28;19921;-74
2021/12/30 12:49:11;;;;;;;;;;;14.70;99.90;;;;;;5057901;28;19925;-77
2021/12/30 12:51:49;;;;;;;;;;;14.70;99.90;;;;;;5025924;28;20260;-75
2021/12/30 12:54:31;;;;;;;;;;;14.70;99.90;;;;;;5026470;28;19936;-75
2021/12/30 12:57:08;;;;;;;;;;;14.70;99.90;;;;;;5035332;28;20374;-74
2021/12/30 12:59:36;;;;;;;;;;;14.70;99.90;;;;;;5055816;28;19921;-75
2021/12/30 13:02:08;;;;;;;;;;;14.70;99.90;;;;;;5026676;28;20389;-75
2021/12/30 13:04:36;;;;;;;;;;;14.70;99.90;;;;;;5017225;28;19928;-78
2021/12/30 13:07:11;;;;;;;;;;;14.60;99.90;;;;;;5007008;28;19952;-74
2021/12/30 13:09:41;;;;;;;;;;;14.60;99.90;;;;;;5006863;28;19925;-75
2021/12/30 13:12:09;;;;;;;;;;;14.70;99.90;;;;;;5036044;28;19921;-78
2021/12/30 13:14:41;;;;;;;;;;;14.70;99.90;;;;;;5004243;28;19925;-74
2021/12/30 13:17:10;;;;;;;;;;;14.60;99.90;;;;;;5005370;28;19921;-74
2021/12/30 13:19:39;;;;;;;;;;;14.60;99.90;;;;;;5005935;28;19932;-74
2021/12/30 13:22:11;;;;;;;;;;;14.60;99.90;;;;;;5005063;28;19928;-74
2021/12/30 13:24:49;;;;;;;;;;;14.60;99.90;;;;;;5037846;28;19921;-73
2021/12/30 13:27:17;;;;;;;;;;;14.50;99.90;;;;;;5030332;28;19924;-73
2021/12/30 13:30:13;;;;;;;;;;;14.50;99.90;;;;;;5025037;28;19925;-74
2021/12/30 13:32:41;;;;;;;;;;;14.50;99.90;;;;;;5023520;28;19924;-74
2021/12/30 13:35:11;;;;;;;;;;;14.50;99.90;;;;;;5040472;28;19937;-75
2021/12/30 13:37:43;;;;;;;;;;;14.60;99.90;;;;;;5016145;28;19932;-74
2021/12/30 13:40:16;;;;;;;;;;;14.50;99.90;;;;;;5005032;28;19932;-75
2021/12/30 13:42:58;;;;;;;;;;;14.70;99.90;;;;;;5020088;28;19932;-75
2021/12/30 13:45:29;;;;;;;;;;;14.70;99.90;;;;;;5020838;28;19932;-77
2021/12/30 13:48:05;;;;;;;;;;;14.80;99.90;;;;;;5009272;28;19933;-74
2021/12/30 13:50:36;;;;;;;;;;;14.80;99.90;;;;;;5022603;28;19929;-75
2021/12/30 13:53:04;;;;;;;;;;;14.80;99.90;;;;;;5039419;28;19921;-74
2021/12/30 13:55:39;;;;;;;;;;;14.80;99.90;;;;;;5025602;28;20536;-75
2021/12/30 13:58:11;;;;;;;;;;;14.80;99.90;;;;;;5016415;28;19925;-76
2021/12/30 14:00:41;;;;;;;;;;;14.80;99.90;;;;;;5023005;28;19925;-75
2021/12/30 14:03:15;;;;;;;;;;;14.80;99.90;;;;;;5046049;28;19921;-76
2021/12/30 14:05:45;;;;;;;;;;;14.80;99.90;;;;;;5024115;28;20373;-76
2021/12/30 14:08:14;;;;;;;;;;;14.80;99.90;;;;;;5022881;28;20385;-77
2021/12/30 14:10:44;;;;;;;;;;;14.70;99.90;;;;;;5050336;28;20284;-75
2021/12/30 14:13:12;;;;;;;;;;;14.70;99.90;;;;;;5055503;28;19921;-76
2021/12/30 14:15:40;;;;;;;;;;;14.70;99.90;;;;;;5005168;28;19928;-76
2021/12/30 14:18:09;;;;;;;;;;;14.70;99.90;;;;;;5004359;28;19925;-77
2021/12/30 14:20:37;;;;;;;;;;;14.70;99.90;;;;;;5024311;28;19921;-74
2021/12/30 14:23:06;;;;;;;;;;;14.70;99.90;;;;;;4986116;28;19925;-77
2021/12/30 14:25:35;;;;;;;;;;;14.70;99.90;;;;;;5017908;28;19921;-77
2021/12/30 14:28:17;;;;;;;;;;;14.70;99.90;;;;;;5019470;28;19936;-76